Terminal Aerodrome Forecast
Issued by NWS Pittsburgh, PA

Home | Current Version | Previous Version | Text Only | Print | Product List | Glossary On
Versions: 1 2 3 4 5 6 7 8 9 10 11 12 13 14 15 16 17 18 19 20 21 22 23 24 25 26 27 28 29 30 31 32 33
000
FTUS41 KPBZ 302320
TAFPIT
TAF
KPIT 302320Z 3100/0106 11008KT P6SM -RA BKN060 WS020/19040KT
      TEMPO 3100/3102 3SM -TSRA BKN030CB
     FM310800 16012KT 4SM -RA OVC050 WS020/20045KT
     FM311300 15008KT 4SM -RA OVC010
     FM010100 23012G20KT 6SM -RA OVC015=

USA.gov is the U.S. government's official web portal to all federal, state and local government web resources and services.